Terminal Aerodrome Forecast
Issued by NWS Louisville, KY

Home | Current Version | Previous Version | Text Only | Print | Product List | Glossary On
Versions: 1 2 3 4 5 6 7 8 9 10 11 12 13 14 15 16 17 18 19 20 21
000
FTUS43 KLMK 262300
TAFSDF
TAF
KSDF 262333Z 2700/2806 20009KT P6SM SCT040 SCT250
     FM271500 22010G15KT P6SM SCT040 SCT250
     FM271900 22011G18KT P6SM VCTS BKN050CB
     FM280100 20006KT P6SM SCT040=

USA.gov is the U.S. government's official web portal to all federal, state and local government web resources and services.